createdAt,value
2019-04-11T00:00:33.353Z,10.90
2019-04-11T00:01:39.081Z,11.00
2019-04-11T00:02:55.265Z,10.70
2019-04-11T00:03:33.554Z,11.80
2019-04-11T00:04:34.382Z,11.60
2019-04-11T00:05:33.418Z,11.50
2019-04-11T00:06:33.827Z,10.70
2019-04-11T00:07:33.443Z,11.00
2019-04-11T00:08:54.597Z,11.00
2019-04-11T00:09:34.439Z,11.00
2019-04-11T00:10:33.475Z,11.20
2019-04-11T00:11:33.611Z,11.90
2019-04-11T00:12:34.483Z,11.10
2019-04-11T00:13:36.255Z,11.30
2019-04-11T00:14:54.543Z,11.40
2019-04-11T00:15:33.600Z,11.70
2019-04-11T00:16:33.569Z,11.20
2019-04-11T00:17:34.198Z,11.80
2019-04-11T00:18:34.475Z,11.20
2019-04-11T00:19:33.687Z,11.50
2019-04-11T00:20:54.645Z,11.60
2019-04-11T00:21:33.623Z,11.50
2019-04-11T00:22:33.634Z,11.80
2019-04-11T00:23:34.362Z,11.60
2019-04-11T00:24:34.543Z,11.60
2019-04-11T00:25:33.774Z,11.30
2019-04-11T00:26:54.918Z,11.40
2019-04-11T00:27:33.702Z,11.60
2019-04-11T00:28:34.043Z,11.80
2019-04-11T00:29:34.434Z,11.80
2019-04-11T00:30:34.402Z,11.50
2019-04-11T00:31:33.790Z,12.10
2019-04-11T00:32:55.949Z,11.70
2019-04-11T00:33:34.047Z,11.30
2019-04-11T00:34:33.781Z,12.00
2019-04-11T00:35:33.782Z,11.10
2019-04-11T00:36:34.594Z,11.70
2019-04-11T00:37:34.711Z,11.80
2019-04-11T00:38:55.187Z,11.80
2019-04-11T00:39:33.852Z,10.70
2019-04-11T00:40:33.868Z,11.50
2019-04-11T00:41:34.288Z,11.60
2019-04-11T00:42:34.615Z,11.00
2019-04-11T00:43:37.651Z,11.30
2019-04-11T00:44:54.995Z,11.10
2019-04-11T00:45:33.992Z,11.70
2019-04-11T00:46:34.217Z,11.10
2019-04-11T00:47:33.951Z,11.90
2019-04-11T00:48:33.939Z,11.30
2019-04-11T00:49:34.639Z,11.40
2019-04-11T00:50:55.956Z,11.20
2019-04-11T00:51:34.105Z,11.10
2019-04-11T00:52:33.999Z,11.30
2019-04-11T00:53:34.127Z,11.80
2019-04-11T00:54:35.180Z,11.20
2019-04-11T00:55:34.024Z,11.00
2019-04-11T00:56:55.063Z,10.90
2019-04-11T00:57:34.075Z,11.40
2019-04-11T00:58:34.049Z,10.60
2019-04-11T00:59:34.185Z,10.90
2019-04-11T01:00:36.547Z,10.90
2019-04-11T01:01:34.129Z,10.60
2019-04-11T01:02:55.901Z,10.70
2019-04-11T01:03:34.128Z,11.00
2019-04-11T01:04:34.932Z,10.40
2019-04-11T01:05:34.160Z,10.50
2019-04-11T01:06:34.314Z,11.60
2019-04-11T01:07:35.241Z,11.20
2019-04-11T01:08:55.817Z,11.10
2019-04-11T01:09:34.736Z,11.10
2019-04-11T01:10:34.218Z,11.40
2019-04-11T01:11:34.245Z,10.80
2019-04-11T01:12:34.400Z,11.00
2019-04-11T01:13:42.581Z,10.50
2019-04-11T01:14:55.318Z,11.00
2019-04-11T01:15:34.253Z,10.70
2019-04-11T01:16:34.893Z,11.10
2019-04-11T01:17:34.285Z,10.60
2019-04-11T01:18:34.291Z,10.90
2019-04-11T01:19:35.132Z,11.00
2019-04-11T01:20:55.686Z,11.00
2019-04-11T01:21:34.874Z,11.40
2019-04-11T01:22:34.351Z,11.10
2019-04-11T01:23:35.346Z,10.40
2019-04-11T01:24:35.539Z,10.60
2019-04-11T01:25:34.781Z,11.20
2019-04-11T01:26:55.419Z,11.30
2019-04-11T01:27:34.425Z,11.10
2019-04-11T01:28:34.471Z,10.70
2019-04-11T01:29:35.567Z,10.80
2019-04-11T01:30:34.459Z,11.20
2019-04-11T01:31:35.796Z,10.70
2019-04-11T01:32:55.468Z,11.00
2019-04-11T01:33:34.609Z,10.90
2019-04-11T01:34:34.972Z,10.90
2019-04-11T01:35:34.529Z,11.10
2019-04-11T01:36:35.331Z,11.20
2019-04-11T01:37:35.531Z,10.50
2019-04-11T01:38:56.814Z,10.80
2019-04-11T01:39:35.050Z,10.90
2019-04-11T01:40:34.549Z,11.50
2019-04-11T01:41:34.598Z,11.10
2019-04-11T01:42:35.482Z,10.90
2019-04-11T01:43:35.550Z,13.30
2019-04-11T01:44:56.794Z,10.60
2019-04-11T01:45:35.742Z,10.70
2019-04-11T01:46:34.634Z,10.80
2019-04-11T01:47:35.825Z,10.80
2019-04-11T01:48:35.408Z,10.20
2019-04-11T01:49:34.670Z,10.80
2019-04-11T01:50:55.679Z,11.30
2019-04-11T01:51:35.796Z,12.00
2019-04-11T01:52:34.716Z,11.20
2019-04-11T01:53:35.258Z,10.90
2019-04-11T01:54:35.468Z,10.90
2019-04-11T01:55:34.814Z,11.10
2019-04-11T01:56:55.873Z,11.10
2019-04-11T01:57:34.751Z,11.20
2019-04-11T01:58:35.099Z,11.00
2019-04-11T01:59:35.443Z,10.60
2019-04-11T02:00:34.837Z,10.90
2019-04-11T02:01:34.860Z,10.80
2019-04-11T02:02:56.897Z,11.10
2019-04-11T02:03:35.063Z,10.50
2019-04-11T02:04:34.827Z,11.10
2019-04-11T02:05:35.073Z,11.60
2019-04-11T02:06:36.122Z,10.70
2019-04-11T02:07:34.874Z,11.00
2019-04-11T02:08:55.885Z,11.20
2019-04-11T02:09:35.828Z,11.20
2019-04-11T02:10:35.025Z,11.60
2019-04-11T02:11:34.908Z,11.00
2019-04-11T02:12:35.285Z,11.00
2019-04-11T02:13:34.936Z,11.10
2019-04-11T02:14:55.961Z,10.70
2019-04-11T02:15:34.953Z,14.10
2019-04-11T02:16:34.979Z,10.60
2019-04-11T02:17:35.013Z,11.00
2019-04-11T02:18:35.220Z,10.70
2019-04-11T02:19:34.995Z,10.90
2019-04-11T02:20:56.036Z,11.10
2019-04-11T02:21:35.889Z,10.80
2019-04-11T02:22:35.121Z,11.60
2019-04-11T02:23:35.134Z,10.90
2019-04-11T02:24:36.184Z,10.60
2019-04-11T02:25:35.069Z,11.30
2019-04-11T02:26:56.621Z,11.40
2019-04-11T02:27:35.083Z,11.20
2019-04-11T02:28:35.149Z,11.20
2019-04-11T02:29:35.463Z,11.50
2019-04-11T02:30:36.270Z,11.20
2019-04-11T02:31:36.778Z,11.30
2019-04-11T02:32:56.208Z,11.10
2019-04-11T02:33:36.957Z,10.80
2019-04-11T02:34:35.280Z,11.10
2019-04-11T02:35:35.425Z,11.40
2019-04-11T02:36:36.377Z,11.20
2019-04-11T02:37:35.243Z,11.20
2019-04-11T02:38:58.972Z,11.60
2019-04-11T02:39:35.657Z,11.00
2019-04-11T02:40:36.653Z,10.60
2019-04-11T02:41:37.268Z,11.10
2019-04-11T02:42:35.757Z,11.30
2019-04-11T02:43:36.585Z,11.00
2019-04-11T02:45:13.193Z,10.80
2019-04-11T02:45:46.758Z,11.10
2019-04-11T02:46:43.664Z,11.30
2019-04-11T02:47:37.818Z,10.80
2019-04-11T02:48:36.122Z,11.30
2019-04-11T02:49:35.785Z,11.70
2019-04-11T02:50:56.626Z,11.00
2019-04-11T02:51:36.805Z,10.90
2019-04-11T02:52:35.590Z,11.30
2019-04-11T02:53:36.651Z,11.40
2019-04-11T02:54:36.630Z,12.00
2019-04-11T02:55:35.740Z,12.40
2019-04-11T02:56:57.709Z,11.10
2019-04-11T02:57:36.281Z,11.10
2019-04-11T02:58:36.706Z,11.20
2019-04-11T02:59:36.343Z,11.00
2019-04-11T03:00:37.182Z,11.10
2019-04-11T03:01:36.326Z,11.20
2019-04-11T03:02:56.901Z,11.40
2019-04-11T03:03:37.174Z,11.30
2019-04-11T03:04:36.962Z,11.40
2019-04-11T03:05:37.516Z,10.80
2019-04-11T03:06:35.739Z,11.20
2019-04-11T03:07:36.028Z,11.20
2019-04-11T03:08:57.606Z,10.70
2019-04-11T03:09:37.257Z,10.70
2019-04-11T03:10:36.096Z,11.10
2019-04-11T03:11:35.655Z,10.80
2019-04-11T03:12:36.126Z,10.90
2019-04-11T03:13:37.501Z,10.80
2019-04-11T03:15:11.943Z,10.80
2019-04-11T03:15:48.802Z,10.90
2019-04-11T03:16:49.331Z,10.70
2019-04-11T03:17:40.304Z,10.90
2019-04-11T03:18:54.979Z,10.90
2019-04-11T03:19:49.256Z,11.00
2019-04-11T03:21:01.549Z,11.40
2019-04-11T03:21:39.157Z,12.10
2019-04-11T03:22:35.718Z,10.90
2019-04-11T03:23:37.223Z,11.40
2019-04-11T03:24:36.022Z,11.10
2019-04-11T03:25:36.414Z,11.70
2019-04-11T03:27:00.318Z,11.20
2019-04-11T03:27:37.226Z,10.80
2019-04-11T03:28:38.086Z,11.30
2019-04-11T03:29:37.780Z,11.70
2019-04-11T03:30:54.584Z,11.30
2019-04-11T03:32:19.624Z,11.50
2019-04-11T03:35:31.707Z,11.20
2019-04-11T03:36:28.542Z,11.10
2019-04-11T03:37:17.349Z,10.90
2019-04-11T03:38:00.415Z,11.20
2019-04-11T03:39:15.640Z,10.90
2019-04-11T03:39:56.487Z,11.60
2019-04-11T03:40:51.858Z,11.40
2019-04-11T03:41:51.998Z,10.80
2019-04-11T03:42:50.819Z,11.30
2019-04-11T03:43:50.252Z,11.00
2019-04-11T03:45:20.582Z,11.00
2019-04-11T03:45:56.281Z,11.20
2019-04-11T03:46:49.487Z,11.30
2019-04-11T03:47:51.883Z,11.50
2019-04-11T03:48:46.802Z,11.80
2019-04-11T03:49:44.713Z,11.20
2019-04-11T03:50:57.623Z,11.00
2019-04-11T03:51:36.995Z,11.60
2019-04-11T03:52:36.665Z,11.60
2019-04-11T03:53:37.143Z,11.50
2019-04-11T03:54:36.738Z,11.20
2019-04-11T03:55:36.866Z,11.90
2019-04-11T03:56:57.353Z,11.90
2019-04-11T03:57:37.331Z,11.50
2019-04-11T03:58:37.191Z,11.30
2019-04-11T03:59:36.731Z,12.10
2019-04-11T04:00:38.776Z,11.30
2019-04-11T04:01:37.949Z,12.00
2019-04-11T04:02:58.099Z,11.00
2019-04-11T04:03:36.742Z,11.40
2019-04-11T04:04:37.108Z,11.50
2019-04-11T04:05:36.965Z,11.20
2019-04-11T04:06:37.369Z,11.40
2019-04-11T04:07:36.202Z,11.20
2019-04-11T04:08:58.470Z,11.20
2019-04-11T04:09:37.388Z,11.70
2019-04-11T04:10:36.300Z,11.40
2019-04-11T04:11:36.252Z,12.50
2019-04-11T04:12:37.700Z,11.50
2019-04-11T04:13:36.781Z,11.70
2019-04-11T04:14:58.953Z,11.00
2019-04-11T04:15:51.978Z,11.80
2019-04-11T04:16:41.348Z,12.10
2019-04-11T04:17:36.487Z,12.20
2019-04-11T04:18:37.936Z,11.80
2019-04-11T04:19:37.682Z,11.10
2019-04-11T04:20:57.671Z,11.50
2019-04-11T04:21:36.393Z,11.80
2019-04-11T04:22:37.678Z,11.80
2019-04-11T04:23:37.835Z,12.70
2019-04-11T04:24:39.806Z,11.90
2019-04-11T04:25:36.853Z,11.70
2019-04-11T04:26:59.123Z,12.10
2019-04-11T04:27:36.407Z,12.20
2019-04-11T04:28:38.092Z,11.90
2019-04-11T04:29:37.779Z,12.40
2019-04-11T04:30:38.274Z,11.30
2019-04-11T04:31:36.457Z,11.40
2019-04-11T04:32:57.507Z,11.50
2019-04-11T04:33:38.462Z,11.80
2019-04-11T04:34:36.700Z,11.80
2019-04-11T04:35:38.017Z,11.60
2019-04-11T04:36:37.847Z,11.90
2019-04-11T04:37:36.572Z,11.80
2019-04-11T04:38:59.090Z,12.20
2019-04-11T04:39:37.650Z,11.70
2019-04-11T04:40:51.053Z,12.00
2019-04-11T04:41:41.372Z,12.60
2019-04-11T04:42:43.075Z,12.10
2019-04-11T04:43:36.739Z,11.90
2019-04-11T04:44:58.292Z,11.70
2019-04-11T04:45:58.325Z,11.40
2019-04-11T04:46:52.864Z,12.20
2019-04-11T04:47:46.468Z,12.50
2019-04-11T04:48:38.033Z,12.40
2019-04-11T04:49:38.629Z,12.40
2019-04-11T04:51:01.674Z,12.40
2019-04-11T04:51:37.247Z,12.40
2019-04-11T04:52:37.991Z,12.40
2019-04-11T04:53:36.723Z,12.10
2019-04-11T04:54:38.463Z,12.40
2019-04-11T04:55:36.860Z,13.10
2019-04-11T04:56:58.316Z,11.90
2019-04-11T04:57:37.619Z,13.00
2019-04-11T04:58:37.887Z,13.00
2019-04-11T04:59:39.526Z,12.50
2019-04-11T05:00:37.678Z,12.30
2019-04-11T05:01:37.328Z,12.40
2019-04-11T05:02:59.909Z,12.20
2019-04-11T05:03:37.905Z,12.30
2019-04-11T05:04:38.172Z,12.70
2019-04-11T05:05:38.326Z,12.50
2019-04-11T05:06:36.847Z,13.50
2019-04-11T05:07:40.248Z,13.00
2019-04-11T05:08:58.204Z,12.30
2019-04-11T05:09:38.375Z,13.00
2019-04-11T05:10:38.136Z,12.70
2019-04-11T05:11:38.131Z,12.40
2019-04-11T05:12:36.896Z,12.40
2019-04-11T05:13:38.635Z,13.00
2019-04-11T05:14:59.085Z,13.10
2019-04-11T05:15:36.949Z,12.50
2019-04-11T05:16:37.625Z,12.90
2019-04-11T05:17:38.521Z,12.70
2019-04-11T05:18:36.962Z,12.90
2019-04-11T05:19:36.979Z,12.80
2019-04-11T05:20:58.918Z,13.20
2019-04-11T05:21:37.190Z,14.60
2019-04-11T05:22:37.260Z,13.20
2019-04-11T05:23:37.429Z,14.00
2019-04-11T05:24:37.054Z,12.80
2019-04-11T05:25:37.048Z,13.00
2019-04-11T05:26:58.078Z,13.30
2019-04-11T05:27:37.856Z,13.10
2019-04-11T05:28:37.377Z,13.60
2019-04-11T05:29:37.619Z,13.20
2019-04-11T05:30:37.295Z,13.30
2019-04-11T05:31:37.097Z,14.70
2019-04-11T05:32:58.114Z,13.40
2019-04-11T05:33:37.130Z,13.50
2019-04-11T05:34:37.208Z,14.00
2019-04-11T05:35:37.157Z,14.30
2019-04-11T05:36:37.262Z,13.70
2019-04-11T05:37:37.779Z,14.20
2019-04-11T05:38:58.302Z,14.20
2019-04-11T05:39:38.060Z,14.00
2019-04-11T05:40:37.741Z,13.80
2019-04-11T05:41:37.691Z,13.90
2019-04-11T05:42:37.627Z,13.90
2019-04-11T05:43:39.829Z,13.90
2019-04-11T05:44:59.128Z,14.20
2019-04-11T05:45:38.070Z,14.30
2019-04-11T05:46:49.097Z,14.20
2019-04-11T05:47:37.384Z,14.00
2019-04-11T05:48:37.305Z,13.80
2019-04-11T05:49:40.368Z,13.60
2019-04-11T05:50:58.373Z,14.50
2019-04-11T05:51:42.238Z,13.90
2019-04-11T05:52:37.344Z,13.70
2019-04-11T05:53:38.648Z,14.10
2019-04-11T05:54:39.964Z,13.30
2019-04-11T05:55:41.349Z,14.60
2019-04-11T05:56:59.516Z,13.40
2019-04-11T05:57:38.828Z,13.60
2019-04-11T05:58:42.210Z,14.30
2019-04-11T05:59:37.401Z,15.00
2019-04-11T06:00:38.047Z,14.60
2019-04-11T06:01:38.326Z,14.10
2019-04-11T06:02:59.593Z,15.10
2019-04-11T06:03:41.059Z,13.90
2019-04-11T06:04:37.459Z,14.10
2019-04-11T06:05:38.834Z,13.90
2019-04-11T06:06:40.241Z,13.70
2019-04-11T06:07:41.522Z,14.30
2019-04-11T06:09:00.628Z,14.40
2019-04-11T06:09:39.863Z,14.60
2019-04-11T06:10:42.569Z,14.50
2019-04-11T06:11:37.541Z,13.90
2019-04-11T06:12:37.939Z,13.50
2019-04-11T06:13:37.553Z,14.60
2019-04-11T06:14:59.635Z,14.10
2019-04-11T06:15:39.689Z,14.50
2019-04-11T06:16:43.553Z,14.90
2019-04-11T06:17:38.494Z,14.20
2019-04-11T06:18:41.890Z,14.30
2019-04-11T06:19:37.641Z,13.90
2019-04-11T06:20:59.748Z,14.30
2019-04-11T06:21:37.649Z,14.70
2019-04-11T06:22:38.102Z,14.40
2019-04-11T06:23:37.657Z,14.40
2019-04-11T06:24:38.540Z,14.30
2019-04-11T06:25:40.234Z,14.70
2019-04-11T06:26:58.877Z,14.30
2019-04-11T06:27:39.022Z,14.40
2019-04-11T06:28:38.072Z,14.30
2019-04-11T06:29:38.878Z,15.60
2019-04-11T06:30:37.743Z,15.00
2019-04-11T06:31:38.155Z,14.30
2019-04-11T06:32:58.787Z,14.10
2019-04-11T06:33:37.836Z,14.20
2019-04-11T06:34:37.803Z,14.00
2019-04-11T06:35:37.892Z,14.50
2019-04-11T06:36:39.076Z,14.10
2019-04-11T06:37:38.126Z,14.50
2019-04-11T06:38:58.861Z,15.10
2019-04-11T06:39:37.915Z,14.10
2019-04-11T06:40:37.878Z,13.20
2019-04-11T06:41:38.771Z,15.10
2019-04-11T06:42:37.910Z,15.00
2019-04-11T06:43:38.412Z,14.50
2019-04-11T06:44:58.945Z,14.60
2019-04-11T06:45:37.924Z,14.20
2019-04-11T06:46:48.851Z,14.80
2019-04-11T06:47:37.956Z,13.80
2019-04-11T06:48:38.121Z,14.10
2019-04-11T06:49:38.441Z,14.40
2019-04-11T06:50:59.673Z,14.80
2019-04-11T06:51:38.016Z,15.20
2019-04-11T06:52:39.060Z,14.10
2019-04-11T06:53:38.045Z,15.10
2019-04-11T06:54:39.152Z,13.30
2019-04-11T06:55:39.099Z,13.90
2019-04-11T06:56:59.213Z,13.00
2019-04-11T06:57:38.296Z,13.20
2019-04-11T06:58:39.150Z,12.60
2019-04-11T06:59:38.673Z,13.50
2019-04-11T07:00:39.093Z,13.10
2019-04-11T07:01:38.415Z,13.40
2019-04-11T07:02:59.358Z,12.80
2019-04-11T07:03:38.543Z,12.70
2019-04-11T07:04:38.184Z,12.20
2019-04-11T07:05:38.628Z,12.30
2019-04-11T07:06:38.175Z,12.40
2019-04-11T07:07:38.219Z,12.70
2019-04-11T07:08:59.237Z,12.70
2019-04-11T07:09:39.314Z,12.40
2019-04-11T07:10:38.294Z,12.00
2019-04-11T07:11:38.406Z,12.10
2019-04-11T07:12:38.613Z,12.40
2019-04-11T07:13:39.261Z,11.30
2019-04-11T07:15:00.125Z,11.60
2019-04-11T07:15:38.311Z,11.40
2019-04-11T07:16:38.315Z,12.60
2019-04-11T07:17:38.620Z,11.20
2019-04-11T07:18:38.331Z,10.90
2019-04-11T07:19:39.335Z,11.20
2019-04-11T07:21:00.520Z,10.90
2019-04-11T07:21:38.358Z,12.00
2019-04-11T07:22:38.982Z,12.30
2019-04-11T07:23:38.476Z,10.50
2019-04-11T07:24:39.031Z,10.90
2019-04-11T07:25:39.435Z,11.10
2019-04-11T07:26:59.447Z,12.50
2019-04-11T07:27:38.646Z,11.00
2019-04-11T07:28:39.366Z,10.80
2019-04-11T07:29:38.456Z,10.60
2019-04-11T07:30:39.564Z,10.70
2019-04-11T07:31:39.612Z,10.70
2019-04-11T07:32:59.515Z,10.50
2019-04-11T07:33:38.515Z,11.30
2019-04-11T07:34:40.047Z,12.10
2019-04-11T07:35:39.820Z,12.00
2019-04-11T07:36:38.568Z,11.10
2019-04-11T07:37:38.854Z,11.20
2019-04-11T07:38:59.879Z,11.70
2019-04-11T07:39:41.293Z,10.70
2019-04-11T07:40:39.543Z,11.90
2019-04-11T07:41:39.165Z,12.00
2019-04-11T07:42:39.090Z,18.90
2019-04-11T07:43:39.097Z,14.60
2019-04-11T07:44:59.729Z,12.60
2019-04-11T07:45:40.234Z,10.20
2019-04-11T07:46:38.734Z,10.90
2019-04-11T07:47:38.780Z,10.80
2019-04-11T07:48:38.696Z,10.40
2019-04-11T07:49:38.732Z,11.10
2019-04-11T07:50:59.789Z,11.80
2019-04-11T07:51:38.782Z,10.30
2019-04-11T07:52:38.766Z,10.90
2019-04-11T07:53:39.494Z,10.70
2019-04-11T07:54:38.998Z,12.60
2019-04-11T07:55:38.789Z,12.40
2019-04-11T07:56:59.816Z,11.00
2019-04-11T07:57:38.814Z,12.70
2019-04-11T07:58:39.805Z,13.30
2019-04-11T07:59:39.701Z,12.90
2019-04-11T08:00:45.680Z,11.00
2019-04-11T08:01:38.856Z,9.50
2019-04-11T08:02:59.890Z,10.70
2019-04-11T08:03:39.952Z,10.00
2019-04-11T08:04:38.895Z,10.00
2019-04-11T08:05:38.974Z,10.00
2019-04-11T08:06:39.088Z,11.50
2019-04-11T08:07:38.971Z,9.40
2019-04-11T08:09:00.384Z,9.50
2019-04-11T08:09:39.602Z,10.10
2019-04-11T08:10:38.990Z,11.50
2019-04-11T08:11:40.039Z,10.00
2019-04-11T08:12:39.380Z,9.40
2019-04-11T08:13:39.027Z,9.40
2019-04-11T08:15:00.064Z,8.80
2019-04-11T08:15:39.887Z,10.20
2019-04-11T08:16:39.224Z,8.70
2019-04-11T08:17:42.326Z,9.60
2019-04-11T08:18:39.109Z,11.20
2019-04-11T08:19:39.094Z,9.70
2019-04-11T08:21:00.135Z,9.40
2019-04-11T08:21:39.121Z,9.80
2019-04-11T08:22:39.305Z,11.00
2019-04-11T08:23:40.085Z,10.60
2019-04-11T08:24:39.192Z,9.70
2019-04-11T08:25:39.862Z,11.10
2019-04-11T08:27:00.943Z,9.20
2019-04-11T08:27:50.996Z,9.40
2019-04-11T08:28:39.295Z,9.50
2019-04-11T08:29:39.259Z,9.70
2019-04-11T08:30:40.135Z,12.20
2019-04-11T08:31:40.213Z,10.50
2019-04-11T08:33:00.395Z,11.60
2019-04-11T08:33:40.469Z,9.80
2019-04-11T08:34:39.650Z,10.80
2019-04-11T08:35:40.195Z,9.50
2019-04-11T08:36:40.097Z,10.40
2019-04-11T08:37:39.991Z,10.40
2019-04-11T08:39:00.620Z,10.40
2019-04-11T08:39:39.543Z,10.80
2019-04-11T08:40:39.377Z,9.90
2019-04-11T08:41:39.943Z,9.80
2019-04-11T08:42:40.635Z,10.20
2019-04-11T08:43:39.447Z,9.70
2019-04-11T08:45:00.527Z,10.10
2019-04-11T08:45:40.345Z,9.60
2019-04-11T08:46:39.467Z,9.60
2019-04-11T08:47:46.042Z,9.50
2019-04-11T08:48:39.522Z,11.40
2019-04-11T08:49:39.738Z,10.00
2019-04-11T08:51:00.961Z,10.10
2019-04-11T08:51:39.535Z,9.90
2019-04-11T08:52:40.290Z,13.50
2019-04-11T08:53:40.619Z,18.80
2019-04-11T08:54:39.733Z,12.50
2019-04-11T08:55:48.554Z,10.10
2019-04-11T08:57:01.279Z,9.60
2019-04-11T08:57:40.943Z,9.50
2019-04-11T08:58:40.597Z,9.90
2019-04-11T08:59:39.819Z,10.50
2019-04-11T09:00:40.181Z,10.20
2019-04-11T09:01:40.283Z,11.20
2019-04-11T09:03:01.673Z,10.20
2019-04-11T09:03:39.948Z,10.60
2019-04-11T09:04:40.912Z,11.20
2019-04-11T09:05:40.816Z,11.80
2019-04-11T09:06:40.872Z,10.10
2019-04-11T09:07:39.751Z,10.60
2019-04-11T09:09:00.792Z,10.10
2019-04-11T09:09:39.836Z,10.10
2019-04-11T09:10:40.064Z,11.00
2019-04-11T09:11:41.140Z,10.60
2019-04-11T09:12:39.829Z,11.90
2019-04-11T09:13:39.845Z,10.50
2019-04-11T09:15:00.909Z,10.90
2019-04-11T09:15:39.869Z,10.30
2019-04-11T09:16:39.898Z,10.80
2019-04-11T09:17:44.449Z,11.40
2019-04-11T09:18:39.910Z,10.70
2019-04-11T09:19:41.033Z,10.00
2019-04-11T09:21:02.257Z,10.60
2019-04-11T09:21:40.373Z,11.40
2019-04-11T09:22:40.013Z,12.50
2019-04-11T09:23:39.989Z,10.20
2019-04-11T09:24:40.932Z,10.50
2019-04-11T09:25:40.078Z,10.10
2019-04-11T09:27:01.053Z,10.20
2019-04-11T09:27:40.534Z,10.50
2019-04-11T09:28:40.050Z,10.40
2019-04-11T09:29:40.074Z,11.10
2019-04-11T09:30:41.081Z,9.70
2019-04-11T09:31:41.448Z,10.20
2019-04-11T09:33:01.129Z,11.30
2019-04-11T09:33:41.362Z,10.30
2019-04-11T09:34:40.135Z,10.50
2019-04-11T09:35:40.154Z,10.90
2019-04-11T09:36:40.931Z,10.40
2019-04-11T09:37:40.188Z,10.00
2019-04-11T09:39:02.469Z,10.00
2019-04-11T09:39:41.363Z,10.10
2019-04-11T09:40:40.263Z,10.20
2019-04-11T09:41:40.680Z,10.70
2019-04-11T09:42:40.277Z,10.50
2019-04-11T09:43:40.270Z,10.10
2019-04-11T09:45:01.435Z,10.50
2019-04-11T09:45:40.295Z,10.30
2019-04-11T09:46:40.768Z,10.20
2019-04-11T09:47:40.427Z,10.30
2019-04-11T09:48:40.355Z,10.70
2019-04-11T09:49:40.369Z,9.70
2019-04-11T09:51:01.405Z,9.80
2019-04-11T09:51:40.456Z,10.00
2019-04-11T09:52:40.926Z,9.60
2019-04-11T09:53:41.039Z,9.60
2019-04-11T09:54:40.443Z,10.40
2019-04-11T09:55:41.573Z,9.90
2019-04-11T09:57:02.245Z,10.50
2019-04-11T09:57:40.479Z,9.90
2019-04-11T09:58:40.510Z,8.90
2019-04-11T09:59:41.149Z,11.30
2019-04-11T10:00:41.054Z,9.20
2019-04-11T10:01:40.798Z,8.70
2019-04-11T10:03:01.699Z,8.80
2019-04-11T10:03:40.881Z,8.60
2019-04-11T10:04:41.574Z,9.00
2019-04-11T10:05:40.713Z,9.00
2019-04-11T10:06:40.975Z,9.70
2019-04-11T10:07:41.885Z,8.80
2019-04-11T10:09:01.866Z,8.80
2019-04-11T10:09:40.976Z,9.50
2019-04-11T10:10:43.136Z,8.80
2019-04-11T10:11:41.990Z,11.00
2019-04-11T10:12:40.763Z,9.40
2019-04-11T10:13:40.876Z,9.00
2019-04-11T10:15:03.023Z,9.00
2019-04-11T10:15:40.869Z,9.10
2019-04-11T10:16:40.786Z,9.50
2019-04-11T10:17:42.330Z,9.40
2019-04-11T10:18:42.381Z,8.90
2019-04-11T10:19:42.198Z,9.70
2019-04-11T10:21:01.878Z,10.50
2019-04-11T10:21:41.697Z,11.30
2019-04-11T10:22:40.901Z,10.50
2019-04-11T10:23:41.075Z,14.10
2019-04-11T10:24:40.966Z,9.90
2019-04-11T10:25:41.100Z,12.90
2019-04-11T10:27:02.642Z,17.40
2019-04-11T10:27:40.980Z,17.50
2019-04-11T10:28:41.761Z,10.60
2019-04-11T10:29:41.807Z,8.80
2019-04-11T10:30:41.965Z,9.50
2019-04-11T10:31:42.226Z,9.90
2019-04-11T10:33:02.093Z,10.60
2019-04-11T10:33:41.429Z,11.40
2019-04-11T10:34:41.753Z,8.70
2019-04-11T10:35:41.147Z,9.00
2019-04-11T10:36:41.154Z,8.80
2019-04-11T10:37:42.104Z,10.30
2019-04-11T10:39:02.763Z,9.10
2019-04-11T10:39:41.724Z,9.50
2019-04-11T10:40:41.961Z,9.30
2019-04-11T10:41:42.026Z,9.40
2019-04-11T10:42:42.431Z,9.40
2019-04-11T10:43:42.522Z,9.50
2019-04-11T10:45:02.748Z,10.20
2019-04-11T10:45:41.306Z,9.50
2019-04-11T10:46:41.759Z,9.50
2019-04-11T10:47:41.352Z,10.40
2019-04-11T10:48:44.829Z,8.90
2019-04-11T10:49:42.112Z,8.90
2019-04-11T10:51:02.433Z,9.20
2019-04-11T10:51:42.267Z,9.30
2019-04-11T10:52:42.442Z,9.60
2019-04-11T10:53:41.614Z,9.30
2019-04-11T10:54:41.547Z,9.00
2019-04-11T10:55:41.991Z,9.50
2019-04-11T10:57:03.449Z,10.10
2019-04-11T10:57:42.392Z,8.80
2019-04-11T10:58:42.674Z,9.50
2019-04-11T10:59:42.793Z,9.10
2019-04-11T11:00:41.590Z,8.60
2019-04-11T11:01:42.299Z,9.10
2019-04-11T11:03:02.694Z,9.30
2019-04-11T11:03:41.662Z,8.60
2019-04-11T11:04:42.938Z,9.20
2019-04-11T11:05:42.730Z,8.80
2019-04-11T11:06:41.986Z,9.00
2019-04-11T11:07:42.498Z,8.70
2019-04-11T11:09:03.922Z,8.50
2019-04-11T11:09:42.089Z,8.70
2019-04-11T11:10:41.904Z,8.60
2019-04-11T11:11:41.824Z,8.90
2019-04-11T11:12:41.821Z,8.90
2019-04-11T11:13:42.438Z,9.00
2019-04-11T11:15:03.175Z,9.10
2019-04-11T11:15:41.972Z,9.50
2019-04-11T11:16:44.986Z,9.60
2019-04-11T11:18:00.930Z,9.30
2019-04-11T11:19:15.568Z,9.00
2019-04-11T11:19:57.180Z,9.20
2019-04-11T11:21:05.319Z,8.70
2019-04-11T11:21:42.936Z,9.30
2019-04-11T11:22:43.416Z,9.10
2019-04-11T11:23:42.855Z,9.50
2019-04-11T11:24:42.132Z,9.00
2019-04-11T11:25:47.525Z,9.60
2019-04-11T11:27:04.529Z,8.70
2019-04-11T11:27:42.124Z,9.20
2019-04-11T11:28:43.135Z,9.30
2019-04-11T11:29:43.092Z,9.00
2019-04-11T11:30:42.189Z,10.20
2019-04-11T11:31:42.772Z,9.20
2019-04-11T11:33:03.261Z,8.80
2019-04-11T11:33:42.682Z,9.10
2019-04-11T11:34:42.318Z,9.00
2019-04-11T11:35:42.769Z,9.40
2019-04-11T11:36:43.626Z,9.10
2019-04-11T11:37:42.348Z,9.20
2019-04-11T11:39:03.486Z,9.40
2019-04-11T11:39:43.598Z,9.10
2019-04-11T11:40:43.213Z,8.50
2019-04-11T11:41:42.698Z,10.60
2019-04-11T11:42:42.425Z,9.30
2019-04-11T11:43:43.326Z,8.80
2019-04-11T11:45:04.179Z,8.30
2019-04-11T11:45:46.876Z,8.60
2019-04-11T11:46:42.674Z,8.80
2019-04-11T11:47:43.176Z,9.00
2019-04-11T11:48:46.350Z,8.70
2019-04-11T11:49:51.924Z,10.20
2019-04-11T11:51:03.600Z,10.70
2019-04-11T11:51:43.581Z,12.40
2019-04-11T11:52:43.941Z,11.60
2019-04-11T11:53:42.811Z,14.90
2019-04-11T11:54:43.874Z,9.00
2019-04-11T11:55:43.208Z,9.10
2019-04-11T11:57:04.595Z,9.80
2019-04-11T11:57:42.778Z,9.70
2019-04-11T11:58:45.160Z,10.80
2019-04-11T11:59:42.952Z,11.10
2019-04-11T12:00:42.797Z,11.10
2019-04-11T12:01:46.512Z,11.20
2019-04-11T12:03:03.845Z,12.50
2019-04-11T12:03:42.882Z,10.60
2019-04-11T12:04:42.868Z,8.60
2019-04-11T12:05:48.216Z,9.00
2019-04-11T12:06:43.065Z,9.70
2019-04-11T12:07:43.138Z,9.70
2019-04-11T12:09:04.453Z,9.30
2019-04-11T12:09:42.999Z,9.40
2019-04-11T12:10:43.821Z,8.80
2019-04-11T12:11:43.042Z,9.00
2019-04-11T12:12:44.173Z,9.50
2019-04-11T12:13:43.265Z,9.00
2019-04-11T12:15:04.123Z,8.80
2019-04-11T12:15:43.499Z,9.30
2019-04-11T12:16:43.964Z,8.90
2019-04-11T12:17:43.213Z,9.60
2019-04-11T12:18:48.073Z,9.60
2019-04-11T12:19:51.151Z,9.60
2019-04-11T12:21:05.152Z,9.20
2019-04-11T12:21:45.829Z,8.90
2019-04-11T12:22:44.313Z,9.30
2019-04-11T12:23:53.955Z,9.50
2019-04-11T12:24:43.659Z,9.60
2019-04-11T12:25:43.354Z,9.30
2019-04-11T12:27:04.540Z,9.10
2019-04-11T12:27:43.743Z,9.30
2019-04-11T12:28:43.762Z,10.00
2019-04-11T12:29:47.824Z,9.50
2019-04-11T12:30:44.110Z,9.90
2019-04-11T12:31:44.016Z,10.20
2019-04-11T12:33:05.536Z,10.30
2019-04-11T12:33:43.744Z,9.80
2019-04-11T12:34:44.799Z,10.40
2019-04-11T12:35:44.334Z,10.20
2019-04-11T12:36:47.289Z,9.70
2019-04-11T12:37:43.560Z,9.70
2019-04-11T12:39:04.587Z,9.70
2019-04-11T12:39:43.607Z,10.00
2019-04-11T12:40:43.621Z,10.00
2019-04-11T12:41:43.633Z,10.20
2019-04-11T12:42:43.649Z,10.40
2019-04-11T12:43:43.674Z,10.40
2019-04-11T12:45:06.460Z,10.30
2019-04-11T12:45:43.714Z,10.70
2019-04-11T12:46:43.738Z,10.90
2019-04-11T12:47:43.765Z,10.40
2019-04-11T12:48:43.798Z,10.10
2019-04-11T12:49:52.394Z,10.10
2019-04-11T12:51:04.834Z,9.90
2019-04-11T12:51:43.854Z,9.80
2019-04-11T12:52:43.854Z,10.70
2019-04-11T12:53:43.858Z,9.50
2019-04-11T12:54:43.874Z,9.50
2019-04-11T12:55:43.932Z,9.50
2019-04-11T12:57:04.916Z,9.30
2019-04-11T12:57:43.932Z,9.50
2019-04-11T12:58:43.974Z,9.80
2019-04-11T12:59:44.036Z,9.00
2019-04-11T13:00:43.982Z,9.40